createdAt,value
2023-03-12T00:00:17.105Z,3.72
2023-03-12T00:02:49.896Z,4.03
2023-03-12T00:05:22.981Z,3.72
2023-03-12T00:07:59.924Z,3.85
2023-03-12T00:10:31.992Z,3.30
2023-03-12T00:13:04.759Z,3.88
2023-03-12T00:15:39.180Z,3.97
2023-03-12T00:18:11.642Z,3.90
2023-03-12T00:20:43.977Z,4.10
2023-03-12T00:23:15.959Z,3.72
2023-03-12T00:25:49.130Z,3.45
2023-03-12T00:28:21.075Z,3.63
2023-03-12T00:30:57.026Z,3.70
2023-03-12T00:33:29.978Z,4.00
2023-03-12T00:36:02.476Z,3.63
2023-03-12T00:38:34.830Z,4.80
2023-03-12T00:41:07.180Z,3.50
2023-03-12T00:43:39.787Z,3.10
2023-03-12T00:46:12.015Z,3.97
2023-03-12T00:48:45.412Z,3.90
2023-03-12T00:51:17.355Z,3.70
2023-03-12T00:53:50.319Z,4.00
2023-03-12T00:56:22.826Z,4.22
2023-03-12T00:58:55.622Z,4.13
2023-03-12T01:01:27.922Z,4.40
2023-03-12T01:04:00.717Z,4.60
2023-03-12T01:06:32.776Z,3.93
2023-03-12T01:09:07.966Z,4.18
2023-03-12T01:11:40.084Z,5.35
2023-03-12T01:14:12.442Z,4.13
2023-03-12T01:16:45.792Z,4.60
2023-03-12T01:19:18.513Z,4.50
2023-03-12T01:22:09.290Z,4.82
2023-03-12T01:24:42.065Z,4.70
2023-03-12T01:27:14.466Z,4.65
2023-03-12T01:29:47.200Z,4.32
2023-03-12T01:32:20.152Z,4.30
2023-03-12T01:35:14.484Z,4.03
2023-03-12T01:37:46.854Z,4.35
2023-03-12T01:40:25.561Z,4.28
2023-03-12T01:42:59.075Z,4.25
2023-03-12T01:46:25.801Z,4.10
2023-03-12T01:49:06.275Z,3.90
2023-03-12T01:51:47.866Z,4.20
2023-03-12T01:54:32.182Z,4.22
2023-03-12T01:57:10.348Z,4.43
2023-03-12T01:59:57.551Z,4.03
2023-03-12T02:02:30.955Z,3.90
2023-03-12T02:05:15.478Z,4.15
2023-03-12T02:07:49.102Z,3.85
2023-03-12T02:10:23.026Z,4.18
2023-03-12T02:12:55.407Z,3.77
2023-03-12T02:15:27.866Z,4.18
2023-03-12T02:18:22.090Z,4.47
2023-03-12T02:21:12.880Z,4.20
2023-03-12T02:24:49.263Z,4.68
2023-03-12T02:27:22.461Z,3.80
2023-03-12T02:29:55.344Z,3.60
2023-03-12T02:35:43.140Z,4.53
2023-03-12T02:38:43.990Z,4.20
2023-03-12T02:41:40.786Z,3.60
2023-03-12T02:44:43.708Z,3.50
2023-03-12T02:47:16.949Z,4.03
2023-03-12T02:49:49.218Z,3.97
2023-03-12T02:52:21.922Z,4.32
2023-03-12T02:54:54.054Z,4.67
2023-03-12T02:57:26.907Z,3.97
2023-03-12T02:59:59.613Z,4.10
2023-03-12T03:02:32.112Z,4.32
2023-03-12T03:05:09.472Z,4.07
2023-03-12T03:07:41.381Z,4.27
2023-03-12T03:10:15.904Z,3.78
2023-03-12T03:12:48.656Z,4.07
2023-03-12T03:15:23.819Z,4.00
2023-03-12T03:17:55.727Z,3.80
2023-03-12T03:20:28.564Z,3.90
2023-03-12T03:23:00.489Z,4.03
2023-03-12T03:25:34.559Z,4.07
2023-03-12T03:28:06.815Z,3.80
2023-03-12T03:30:40.204Z,4.13
2023-03-12T03:33:13.123Z,3.17
2023-03-12T03:35:46.152Z,2.75
2023-03-12T03:38:18.956Z,3.80
2023-03-12T03:40:51.097Z,2.85
2023-03-12T03:43:24.047Z,3.30
2023-03-12T03:46:05.587Z,3.20
2023-03-12T03:48:41.822Z,3.60
2023-03-12T03:51:15.671Z,3.75
2023-03-12T03:53:52.171Z,3.50
2023-03-12T03:56:24.337Z,3.40
2023-03-12T03:58:58.471Z,3.87
2023-03-12T04:01:31.453Z,3.67
2023-03-12T04:04:06.280Z,3.85
2023-03-12T04:06:39.538Z,3.88
2023-03-12T04:09:15.144Z,4.03
2023-03-12T04:11:47.431Z,3.97
2023-03-12T04:14:20.234Z,4.07
2023-03-12T04:16:52.130Z,3.78
2023-03-12T04:19:25.016Z,3.72
2023-03-12T04:21:57.462Z,3.97
2023-03-12T04:24:30.381Z,3.70
2023-03-12T04:27:03.594Z,4.03
2023-03-12T04:29:39.655Z,4.43
2023-03-12T04:32:12.994Z,3.92
2023-03-12T04:34:45.662Z,3.72
2023-03-12T04:37:19.808Z,3.80
2023-03-12T04:39:52.003Z,4.03
2023-03-12T04:42:46.008Z,5.05
2023-03-12T04:45:18.517Z,4.05
2023-03-12T04:47:52.195Z,4.30
2023-03-12T04:50:24.649Z,3.33
2023-03-12T04:52:57.096Z,3.83
2023-03-12T04:55:30.210Z,3.88
2023-03-12T04:58:02.392Z,4.00
2023-03-12T05:00:35.925Z,3.60
2023-03-12T05:03:08.965Z,3.10
2023-03-12T05:05:41.030Z,3.10
2023-03-12T05:08:34.820Z,2.80
2023-03-12T05:11:07.502Z,3.03
2023-03-12T05:13:40.575Z,3.17
2023-03-12T05:16:13.439Z,3.10
2023-03-12T05:18:47.667Z,3.95
2023-03-12T05:21:21.923Z,3.25
2023-03-12T05:23:57.364Z,2.88
2023-03-12T05:26:33.963Z,2.88
2023-03-12T05:29:13.558Z,3.53
2023-03-12T05:31:46.458Z,2.88
2023-03-12T05:34:18.736Z,3.10
2023-03-12T05:36:52.291Z,3.15
2023-03-12T05:39:29.314Z,2.78
2023-03-12T05:42:06.110Z,2.77
2023-03-12T05:44:40.881Z,3.13
2023-03-12T05:47:15.249Z,2.97
2023-03-12T05:49:47.857Z,2.33
2023-03-12T05:52:20.549Z,2.78
2023-03-12T05:54:53.518Z,2.43
2023-03-12T06:00:20.290Z,2.67
2023-03-12T06:03:00.951Z,2.15
2023-03-12T06:05:35.910Z,2.60
2023-03-12T06:08:08.797Z,2.00
2023-03-12T06:10:41.958Z,2.20
2023-03-12T06:13:14.430Z,2.17
2023-03-12T06:15:46.548Z,2.22
2023-03-12T06:21:19.920Z,1.77
2023-03-12T06:23:54.246Z,1.95
2023-03-12T06:26:46.840Z,2.20
2023-03-12T06:29:19.021Z,2.28
2023-03-12T06:31:52.674Z,2.10
2023-03-12T06:34:25.017Z,2.20
2023-03-12T06:36:57.277Z,2.35
2023-03-12T06:39:32.786Z,2.10
2023-03-12T06:42:05.634Z,3.00
2023-03-12T06:44:38.410Z,2.25
2023-03-12T06:47:12.805Z,2.30
2023-03-12T06:49:45.016Z,2.10
2023-03-12T06:52:18.086Z,2.17
2023-03-12T06:54:50.377Z,1.90
2023-03-12T06:57:23.429Z,2.05
2023-03-12T06:59:58.607Z,1.87
2023-03-12T07:02:31.088Z,2.08
2023-03-12T07:05:04.190Z,2.20
2023-03-12T07:07:36.063Z,1.70
2023-03-12T07:10:12.225Z,1.88
2023-03-12T07:12:44.831Z,2.07
2023-03-12T07:15:17.605Z,1.77
2023-03-12T07:17:49.485Z,2.03
2023-03-12T07:20:22.346Z,2.00
2023-03-12T07:22:54.628Z,2.03
2023-03-12T07:25:26.605Z,1.83
2023-03-12T07:27:59.281Z,2.22
2023-03-12T07:30:34.729Z,2.22
2023-03-12T07:33:12.695Z,1.85
2023-03-12T07:35:50.169Z,2.17
2023-03-12T07:38:23.959Z,2.10
2023-03-12T07:40:57.977Z,2.00
2023-03-12T07:43:30.491Z,2.17
2023-03-12T07:46:02.395Z,1.90
2023-03-12T07:48:35.088Z,2.00
2023-03-12T07:51:08.504Z,2.00
2023-03-12T07:53:41.327Z,2.00
2023-03-12T07:56:13.386Z,2.30
2023-03-12T07:58:46.672Z,2.08
2023-03-12T08:01:18.589Z,1.95
2023-03-12T08:03:51.345Z,1.87
2023-03-12T08:06:23.246Z,2.05
2023-03-12T08:08:56.168Z,2.40
2023-03-12T08:11:28.382Z,1.92
2023-03-12T08:14:01.482Z,2.13
2023-03-12T08:16:33.471Z,1.97
2023-03-12T08:19:06.290Z,2.10
2023-03-12T08:21:38.552Z,2.03
2023-03-12T08:24:11.296Z,1.83
2023-03-12T08:26:43.160Z,2.10
2023-03-12T08:29:17.128Z,1.90
2023-03-12T08:32:03.648Z,1.98
2023-03-12T08:34:37.245Z,2.05
2023-03-12T08:37:09.923Z,1.70
2023-03-12T08:39:42.251Z,1.65
2023-03-12T08:42:14.989Z,1.80
2023-03-12T08:44:47.332Z,1.60
2023-03-12T08:47:19.783Z,2.15
2023-03-12T08:49:52.186Z,1.55
2023-03-12T08:52:24.963Z,1.70
2023-03-12T08:54:57.636Z,1.57
2023-03-12T08:57:29.646Z,1.80
2023-03-12T09:00:05.690Z,1.90
2023-03-12T09:02:38.895Z,1.80
2023-03-12T09:05:11.907Z,1.70
2023-03-12T09:07:44.231Z,1.87
2023-03-12T09:10:17.898Z,1.80
2023-03-12T09:12:49.808Z,1.77
2023-03-12T09:15:22.514Z,1.35
2023-03-12T09:17:55.869Z,1.80
2023-03-12T09:20:28.284Z,1.60
2023-03-12T09:23:00.195Z,1.60
2023-03-12T09:25:33.679Z,1.73
2023-03-12T09:28:05.604Z,1.60
2023-03-12T09:30:42.342Z,1.50
2023-03-12T09:33:18.638Z,1.60
2023-03-12T09:36:00.562Z,1.70
2023-03-12T09:38:35.256Z,1.60
2023-03-12T09:41:22.558Z,1.45
2023-03-12T09:44:18.963Z,1.48
2023-03-12T09:46:58.568Z,1.80
2023-03-12T09:49:43.257Z,1.52
2023-03-12T09:52:52.198Z,1.67
2023-03-12T09:55:24.976Z,1.70
2023-03-12T09:58:02.464Z,2.00
2023-03-12T10:00:36.586Z,1.70
2023-03-12T10:03:24.178Z,1.60
2023-03-12T10:06:20.038Z,2.15
2023-03-12T10:09:36.107Z,1.60
2023-03-12T10:12:41.849Z,2.17
2023-03-12T10:15:41.770Z,1.60
2023-03-12T10:18:37.268Z,1.95
2023-03-12T10:21:39.432Z,1.80
2023-03-12T10:24:36.413Z,1.92
2023-03-12T10:27:16.410Z,1.80
2023-03-12T10:29:52.446Z,1.80
2023-03-12T10:32:49.131Z,1.67
2023-03-12T10:35:25.631Z,1.73
2023-03-12T10:38:03.382Z,1.50
2023-03-12T10:40:39.120Z,1.80
2023-03-12T10:43:11.254Z,1.83
2023-03-12T10:46:16.880Z,1.60
2023-03-12T10:48:48.773Z,2.25
2023-03-12T10:51:21.135Z,1.83
2023-03-12T10:53:53.041Z,1.80
2023-03-12T10:56:25.451Z,1.87
2023-03-12T10:58:59.864Z,2.17
2023-03-12T11:01:36.232Z,1.92
2023-03-12T11:04:22.214Z,1.80
2023-03-12T11:07:13.000Z,2.03
2023-03-12T11:09:45.319Z,2.00
2023-03-12T11:12:34.913Z,1.98
2023-03-12T11:15:25.845Z,1.90
2023-03-12T11:18:35.289Z,2.05
2023-03-12T11:21:10.765Z,1.90
2023-03-12T11:24:08.214Z,1.97
2023-03-12T11:27:04.291Z,2.30
2023-03-12T11:29:43.638Z,2.00
2023-03-12T11:32:23.550Z,8.02
2023-03-12T11:34:55.897Z,4.10
2023-03-12T11:37:45.552Z,2.57
2023-03-12T11:40:47.972Z,2.30
2023-03-12T11:44:02.161Z,2.45
2023-03-12T11:47:04.241Z,2.10
2023-03-12T11:49:56.650Z,2.40
2023-03-12T11:53:21.391Z,2.00
2023-03-12T11:56:22.362Z,2.22
2023-03-12T11:59:31.577Z,2.40
2023-03-12T12:02:37.355Z,2.38
2023-03-12T12:05:38.791Z,2.72
2023-03-12T12:08:35.728Z,3.17
2023-03-12T12:11:41.721Z,2.55
2023-03-12T12:14:13.910Z,2.45
2023-03-12T12:17:15.014Z,2.40
2023-03-12T12:20:04.026Z,2.10
2023-03-12T12:22:51.400Z,2.30
2023-03-12T12:26:13.371Z,2.38
2023-03-12T12:29:04.398Z,2.30
2023-03-12T12:31:57.274Z,2.70
2023-03-12T12:35:00.665Z,2.35
2023-03-12T12:37:50.691Z,2.73
2023-03-12T12:40:41.527Z,2.50
2023-03-12T12:43:32.573Z,2.10
2023-03-12T12:46:27.391Z,2.70
2023-03-12T12:49:08.403Z,2.13
2023-03-12T12:51:46.238Z,1.80
2023-03-12T12:54:29.550Z,1.73
2023-03-12T12:57:37.936Z,2.15
2023-03-12T13:00:31.476Z,1.90
2023-03-12T13:03:04.321Z,1.90
2023-03-12T13:05:37.218Z,2.30
2023-03-12T13:08:09.715Z,1.73
2023-03-12T13:11:02.564Z,2.42
2023-03-12T13:14:04.596Z,2.33
2023-03-12T13:16:45.413Z,2.22
2023-03-12T13:19:17.198Z,1.60
2023-03-12T13:22:27.532Z,2.17
2023-03-12T13:25:42.389Z,2.38
2023-03-12T13:28:26.552Z,2.40
2023-03-12T13:31:00.920Z,2.05
2023-03-12T13:33:46.277Z,2.20
2023-03-12T13:36:23.761Z,2.25
2023-03-12T13:39:21.688Z,2.28
2023-03-12T13:41:58.817Z,2.22
2023-03-12T13:44:39.712Z,2.45
2023-03-12T13:47:12.447Z,2.80
2023-03-12T13:49:46.866Z,2.65
2023-03-12T13:52:37.588Z,2.90
2023-03-12T13:55:32.042Z,2.20
2023-03-12T13:58:31.254Z,2.50
2023-03-12T14:01:07.282Z,2.17
2023-03-12T14:03:45.099Z,2.40
2023-03-12T14:06:23.887Z,2.30
2023-03-12T14:09:24.425Z,2.30
2023-03-12T14:12:16.643Z,2.00
2023-03-12T14:15:12.347Z,2.20
2023-03-12T14:17:45.312Z,1.90
2023-03-12T14:20:21.644Z,2.05
2023-03-12T14:23:06.058Z,2.15
2023-03-12T14:25:44.021Z,2.35
2023-03-12T14:28:25.892Z,2.20
2023-03-12T14:31:15.311Z,2.10
2023-03-12T14:33:58.830Z,2.20
2023-03-12T14:36:55.622Z,2.90
2023-03-12T14:39:51.678Z,2.20
2023-03-12T14:42:30.340Z,2.10
2023-03-12T14:45:07.746Z,2.33
2023-03-12T14:47:50.198Z,2.30
2023-03-12T14:50:30.340Z,2.17
2023-03-12T14:53:37.824Z,2.35
2023-03-12T14:56:30.614Z,2.30
2023-03-12T14:59:35.319Z,2.60
2023-03-12T15:02:19.637Z,2.20
2023-03-12T15:04:59.575Z,2.60
2023-03-12T15:07:40.125Z,2.63
2023-03-12T15:10:28.462Z,2.33
2023-03-12T15:13:02.357Z,2.80
2023-03-12T15:15:43.568Z,2.78
2023-03-12T15:18:32.942Z,2.72
2023-03-12T15:21:06.062Z,2.42
2023-03-12T15:23:39.121Z,2.47
2023-03-12T15:26:20.555Z,2.20
2023-03-12T15:29:00.917Z,2.70
2023-03-12T15:31:44.785Z,2.08
2023-03-12T15:34:43.384Z,2.90
2023-03-12T15:37:41.398Z,2.70
2023-03-12T15:40:23.212Z,2.17
2023-03-12T15:42:59.263Z,2.90
2023-03-12T15:45:38.607Z,2.88
2023-03-12T15:48:40.257Z,2.80
2023-03-12T15:51:35.287Z,2.77
2023-03-12T15:54:13.962Z,2.55
2023-03-12T15:56:45.858Z,2.63
2023-03-12T15:59:26.008Z,2.67
2023-03-12T16:01:58.303Z,2.85
2023-03-12T16:04:31.142Z,2.53
2023-03-12T16:07:03.112Z,2.45
2023-03-12T16:09:36.631Z,2.70
2023-03-12T16:12:10.235Z,2.55
2023-03-12T16:14:42.675Z,2.95
2023-03-12T16:17:17.766Z,2.30
2023-03-12T16:19:50.285Z,2.70
2023-03-12T16:22:22.487Z,3.08
2023-03-12T16:24:54.874Z,2.88
2023-03-12T16:27:32.592Z,3.42
2023-03-12T16:30:18.336Z,3.13
2023-03-12T16:32:50.404Z,3.97
2023-03-12T16:35:23.672Z,2.85
2023-03-12T16:37:55.834Z,2.88
2023-03-12T16:40:35.477Z,4.10
2023-03-12T16:43:18.998Z,3.23
2023-03-12T16:45:54.361Z,3.30
2023-03-12T16:48:26.582Z,2.90
2023-03-12T16:50:59.172Z,3.53
2023-03-12T16:53:31.072Z,2.78
2023-03-12T16:56:03.714Z,3.13
2023-03-12T16:58:36.594Z,3.80
2023-03-12T17:01:19.287Z,3.35
2023-03-12T17:03:53.982Z,3.42
2023-03-12T17:06:27.751Z,3.10
2023-03-12T17:08:59.747Z,3.00
2023-03-12T17:11:35.281Z,3.53
2023-03-12T17:14:22.437Z,3.42
2023-03-12T17:16:55.278Z,3.15
2023-03-12T17:19:27.254Z,3.10
2023-03-12T17:21:59.803Z,3.43
2023-03-12T17:24:32.112Z,3.88
2023-03-12T17:29:56.796Z,3.05
2023-03-12T17:32:30.478Z,2.97
2023-03-12T17:35:08.043Z,3.40
2023-03-12T17:37:42.672Z,3.15
2023-03-12T17:40:15.896Z,3.35
2023-03-12T17:43:08.950Z,3.00
2023-03-12T17:48:35.878Z,3.17
2023-03-12T17:51:13.534Z,3.20
2023-03-12T17:53:46.257Z,3.50
2023-03-12T17:56:19.371Z,3.45
2023-03-12T17:58:51.282Z,3.40
2023-03-12T18:01:24.515Z,3.43
2023-03-12T18:03:56.388Z,3.83
2023-03-12T18:06:29.193Z,3.80
2023-03-12T18:09:02.141Z,3.50
2023-03-12T18:11:34.103Z,3.15
2023-03-12T18:14:06.423Z,3.30
2023-03-12T18:16:38.835Z,3.28
2023-03-12T18:19:11.102Z,3.22
2023-03-12T18:21:45.249Z,3.38
2023-03-12T18:24:17.260Z,3.47
2023-03-12T18:26:51.925Z,3.20
2023-03-12T18:29:24.472Z,3.25
2023-03-12T18:31:57.224Z,3.28
2023-03-12T18:34:29.555Z,3.20
2023-03-12T18:37:01.543Z,4.20
2023-03-12T18:39:34.262Z,3.50
2023-03-12T18:42:06.241Z,3.83
2023-03-12T18:44:38.933Z,3.50
2023-03-12T18:47:13.512Z,3.90
2023-03-12T18:49:45.850Z,3.72
2023-03-12T18:52:18.758Z,3.90
2023-03-12T18:54:50.644Z,4.03
2023-03-12T18:57:23.732Z,3.83
2023-03-12T18:59:56.141Z,4.18
2023-03-12T19:02:28.918Z,3.83
2023-03-12T19:05:03.928Z,3.40
2023-03-12T19:07:38.988Z,3.15
2023-03-12T19:10:13.281Z,3.42
2023-03-12T19:12:52.637Z,3.30
2023-03-12T19:15:26.230Z,3.08
2023-03-12T19:17:59.326Z,4.03
2023-03-12T19:20:32.650Z,3.28
2023-03-12T19:23:05.380Z,3.70
2023-03-12T19:25:37.387Z,3.22
2023-03-12T19:28:10.105Z,4.70
2023-03-12T19:30:42.462Z,3.70
2023-03-12T19:33:15.612Z,3.13
2023-03-12T19:35:47.588Z,3.58
2023-03-12T19:38:22.650Z,3.55
2023-03-12T19:40:58.575Z,3.50
2023-03-12T19:43:31.422Z,3.77
2023-03-12T19:46:04.449Z,3.00
2023-03-12T19:48:37.763Z,3.20
2023-03-12T19:51:11.862Z,3.30
2023-03-12T19:56:38.057Z,3.10
2023-03-12T19:59:10.481Z,3.30
2023-03-12T20:01:42.743Z,3.22
2023-03-12T20:04:15.860Z,2.60
2023-03-12T20:06:47.856Z,3.10
2023-03-12T20:09:20.610Z,3.33
2023-03-12T20:11:52.477Z,3.47
2023-03-12T20:14:26.205Z,2.53
2023-03-12T20:16:58.738Z,3.22
2023-03-12T20:19:49.200Z,3.25
2023-03-12T20:22:22.879Z,2.80
2023-03-12T20:24:54.736Z,3.83
2023-03-12T20:27:27.612Z,2.80
2023-03-12T20:29:59.954Z,3.28
2023-03-12T20:32:32.025Z,2.90
2023-03-12T20:35:05.582Z,2.50
2023-03-12T20:37:38.568Z,2.78
2023-03-12T20:40:11.738Z,2.83
2023-03-12T20:42:44.492Z,3.25
2023-03-12T20:45:16.889Z,2.83
2023-03-12T20:47:49.716Z,2.77
2023-03-12T20:50:22.006Z,3.20
2023-03-12T20:52:53.874Z,2.92
2023-03-12T20:55:29.660Z,2.90
2023-03-12T20:58:01.996Z,3.25
2023-03-12T21:00:33.877Z,2.80
2023-03-12T21:03:06.586Z,3.20
2023-03-12T21:05:39.894Z,3.13
2023-03-12T21:08:12.183Z,2.72
2023-03-12T21:10:44.646Z,2.70
2023-03-12T21:13:20.284Z,2.40
2023-03-12T21:15:53.249Z,2.22
2023-03-12T21:18:47.406Z,2.67
2023-03-12T21:21:19.746Z,2.30
2023-03-12T21:23:55.667Z,2.28
2023-03-12T21:26:27.951Z,2.90
2023-03-12T21:29:01.527Z,2.40
2023-03-12T21:31:37.402Z,2.30
2023-03-12T21:34:09.745Z,2.50
2023-03-12T21:36:42.594Z,2.88
2023-03-12T21:39:14.639Z,2.47
2023-03-12T21:41:47.351Z,2.75
2023-03-12T21:44:19.199Z,2.45
2023-03-12T21:46:52.337Z,2.33
2023-03-12T21:49:24.297Z,2.50
2023-03-12T21:51:59.748Z,2.07
2023-03-12T21:54:33.662Z,2.67
2023-03-12T21:57:06.513Z,2.25
2023-03-12T21:59:38.483Z,2.08
2023-03-12T22:02:16.960Z,1.95
2023-03-12T22:04:48.907Z,2.47
2023-03-12T22:07:21.946Z,2.50
2023-03-12T22:09:53.797Z,2.03
2023-03-12T22:12:26.940Z,2.20
2023-03-12T22:14:58.771Z,2.20
2023-03-12T22:17:32.082Z,2.00
2023-03-12T22:20:04.987Z,2.08
2023-03-12T22:25:30.893Z,2.20
2023-03-12T22:28:03.631Z,1.83
2023-03-12T22:30:35.613Z,2.13
2023-03-12T22:33:08.654Z,2.05
2023-03-12T22:35:48.971Z,2.08
2023-03-12T22:38:21.961Z,1.98
2023-03-12T22:40:55.906Z,1.85
2023-03-12T22:43:30.969Z,2.27
2023-03-12T22:46:03.239Z,1.88
2023-03-12T22:48:37.170Z,2.30
2023-03-12T22:51:09.565Z,1.92
2023-03-12T22:53:41.633Z,2.08
2023-03-12T22:56:15.340Z,1.97
2023-03-12T22:58:47.824Z,1.70
2023-03-12T23:01:22.772Z,2.30
2023-03-12T23:03:55.141Z,2.00
2023-03-12T23:06:29.959Z,1.88
2023-03-12T23:09:03.135Z,2.17
2023-03-12T23:11:35.069Z,2.05
2023-03-12T23:14:08.113Z,1.70
2023-03-12T23:16:40.008Z,1.77
2023-03-12T23:19:12.746Z,1.70
2023-03-12T23:21:45.029Z,1.90
2023-03-12T23:24:17.654Z,1.80
2023-03-12T23:26:49.599Z,2.00
2023-03-12T23:29:22.328Z,1.75
2023-03-12T23:31:54.271Z,2.08
2023-03-12T23:37:20.394Z,1.55
2023-03-12T23:39:55.036Z,1.90
2023-03-12T23:42:28.041Z,1.63
2023-03-12T23:45:00.804Z,2.20
2023-03-12T23:47:33.365Z,1.77
2023-03-12T23:50:06.384Z,1.70
2023-03-12T23:52:38.258Z,1.60
2023-03-12T23:55:11.114Z,1.75
2023-03-12T23:57:42.960Z,1.88
